• Join FlightAware (Why Join?)
  • Login
  • US Flag 
03:01PM EDT


 

Airport Tracker/Info


-or-


 

Live Flight TrackerFlight Track Log ✈ AAL2359 ✈ 16-Jul-2013 ✈ KORD - KDFW

Flight Track Log - Related Links

Times and Time Zones

All times are in EDT time to prevent confusion due to time zone crossing. See the AAL2359 flight status page for this flight to view local times or setup timezone preferences in your user account.

Time Position Orientation Groundspeed Altitude Reporting Facility
EDT Latitude Longitude Course Direction KTS MPH feet Rate Location/Type
11:04PM 41.9333 -87.9167 207° Southwest 166 191 2,200  Level Chicago TRACON
11:05PM 41.8833 -87.9333 194° South 223 257 3,800 1,440 Climbing Chicago TRACON
11:06PM 41.7180 -88.2183 201° Southwest  Level Estimated
11:06PM 41.7992 -87.9411 184° South 266 306 5,200  Level Chicago Center
11:07PM 41.6300 -88.3216 197° South  Level Estimated
11:07PM 41.7264 -87.9556 188° South 277 319 7,700  Level Chicago Center
11:08PM 41.5418 -88.4246 194° South  Level Estimated
11:08PM 41.6553 -88.0067 208° Southwest 294 338 10,400  Level Chicago Center
11:09PM 41.4536 -88.5273 207° Southwest  Level Estimated
11:09PM 41.5831 -88.0564 207° Southwest 295 339 13,000  Level Chicago Center
11:10PM 41.5042 -88.1122 208° Southwest 329 379 14,200 1,320 Climbing Chicago Center
11:11PM 41.3944 -88.1872 207° Southwest 390 449 15,800 1,680 Climbing Chicago Center
11:12PM 41.2886 -88.2350 199° South 408 470 17,700 1,620 Climbing Chicago Center
11:13PM 41.1797 -88.2847 199° South 417 480 19,200 1,560 Climbing Chicago Center
11:14PM 41.0672 -88.3361 199° South 428 493 21,000 1,560 Climbing Chicago Center
11:15PM 40.9506 -88.3872 198° South 441 507 22,400 1,500 Climbing Chicago Center
11:16PM 40.8325 -88.4403 199° South 449 517 24,100 1,560 Climbing Chicago Center
11:17PM 40.7122 -88.5597 217° Southwest 474 545 25,600 1,740 Climbing Chicago Center
11:18PM 40.6292 -88.6878 230° Southwest 464 534 27,700 1,740 Climbing Chicago Center
11:19PM 40.5375 -88.8011 223° Southwest 457 526 29,200 1,320 Climbing Chicago Center
11:20PM 40.4544 -88.9103 225° Southwest 452 520 30,500 1,200 Climbing Chicago Center
11:21PM 40.3675 -89.0303 226° Southwest 453 521 31,700 1,020 Climbing Chicago Center
11:22PM 40.2800 -89.1467 225° Southwest 449 517 32,600 840 Climbing Chicago Center
11:23PM 40.1928 -89.2614 225° Southwest 445 512 33,500 660 Climbing Chicago Center
11:24PM 40.1044 -89.3797 226° Southwest 447 514 34,000 240 Climbing Kansas City Center
11:25PM 40.0178 -89.4947 225° Southwest 444 511 34,000  Level Kansas City Center
11:26PM 39.9289 -89.6092 225° Southwest 446 513 34,000  Level Kansas City Center
11:27PM 39.8422 -89.7261 226° Southwest 447 514 34,000  Level Kansas City Center
11:28PM 39.7544 -89.8394 225° Southwest 445 512 34,000  Level Kansas City Center
11:29PM 39.6528 -89.9744 226° Southwest 449 517 34,000  Level Kansas City Center
11:30PM 39.5653 -90.0908 226° Southwest 450 518 34,000  Level Kansas City Center
11:31PM 39.4772 -90.2044 225° Southwest 450 518 34,000  Level Kansas City Center
11:32PM 39.3897 -90.3183 225° Southwest 449 517 34,000  Level Kansas City Center
11:33PM 39.3028 -90.4319 225° Southwest 447 514 34,000  Level Kansas City Center
11:34PM 39.2161 -90.5428 225° Southwest 444 511 34,000  Level Kansas City Center
11:35PM 39.1297 -90.6550 225° Southwest 443 510 34,000  Level Kansas City Center
11:36PM 39.0431 -90.7642 224° Southwest 442 509 34,000  Level Kansas City Center
11:37PM 38.9581 -90.8719 225° Southwest 438 504 34,000  Level Kansas City Center
11:38PM 38.8539 -91.0036 225° Southwest 441 507 34,000  Level Kansas City Center
11:39PM 38.7672 -91.1122 224° Southwest 441 507 34,000  Level Kansas City Center
11:40PM 38.6819 -91.2217 225° Southwest 438 504 34,000  Level Kansas City Center
11:41PM 38.5889 -91.3219 220° Southwest 439 505 34,000  Level Kansas City Center
11:42PM 38.4822 -91.4203 216° Southwest 438 504 34,000  Level Kansas City Center
11:43PM 38.3839 -91.5150 217° Southwest 442 509 34,000  Level Kansas City Center
11:44PM 38.2864 -91.6083 217° Southwest 438 504 34,000  Level Kansas City Center
11:46PM 38.1883 -91.7011 217° Southwest 439 505 34,000  Level Kansas City Center
11:47PM 38.0911 -91.7944 217° Southwest 436 502 34,000  Level Kansas City Center
11:48PM 37.9939 -91.8892 218° Southwest 437 503 34,000  Level Kansas City Center
11:49PM 37.8961 -91.9828 217° Southwest 435 501 34,000  Level Kansas City Center
11:50PM 37.7919 -92.0811 217° Southwest 438 504 34,000  Level Kansas City Center
11:51PM 37.6853 -92.1586 210° Southwest 441 507 34,000  Level Kansas City Center
11:52PM 37.5806 -92.2375 211° Southwest 445 512 34,000  Level Kansas City Center
11:53PM 37.4725 -92.3158 210° Southwest 445 512 34,000  Level Kansas City Center
11:54PM 37.3653 -92.3956 211° Southwest 444 511 34,000  Level Kansas City Center
11:55PM 37.2711 -92.4989 221° Southwest 446 513 34,000  Level Kansas City Center
11:56PM 37.1731 -92.5931 217° Southwest 443 510 34,000  Level Kansas City Center
11:57PM 37.0753 -92.6861 217° Southwest 442 509 34,000  Level Kansas City Center
11:58PM 36.9800 -92.7819 219° Southwest 439 505 34,000  Level Kansas City Center
11:59PM 36.8794 -92.8736 216° Southwest 444 511 34,000  Level Kansas City Center
12:00AM 36.7811 -92.9667 217° Southwest 442 509 34,000  Level Kansas City Center
12:01AM 36.6622 -93.0797 217° Southwest 446 513 34,000  Level Kansas City Center
12:02AM 36.5794 -93.1583 217° Southwest 448 516 34,000  Level Kansas City Center
12:03AM 36.4811 -93.2542 218° Southwest 449 517 34,000  Level Kansas City Center
12:04AM 36.3811 -93.3458 216° Southwest 449 517 34,000  Level Kansas City Center
12:05AM 36.2981 -93.4317 220° Southwest 456 525 34,000  Level Memphis Center
12:06AM 36.1956 -93.5256 216° Southwest 456 525 34,000  Level Memphis Center
12:07AM 36.0953 -93.6192 217° Southwest 451 519 34,000  Level Memphis Center
12:08AM 35.9967 -93.7128 218° Southwest 451 519 34,000  Level Memphis Center
12:09AM 35.8964 -93.8036 216° Southwest 451 519 34,000  Level Memphis Center
12:10AM 35.7978 -93.8967 217° Southwest 451 519 34,000  Level Memphis Center
12:11AM 35.6972 -93.9894 217° Southwest 456 525 34,000  Level Memphis Center
12:12AM 35.5964 -94.0822 217° Southwest 456 525 34,000  Level Memphis Center
12:13AM 35.4975 -94.1747 217° Southwest 456 525 34,000  Level Memphis Center
12:14AM 35.3839 -94.2764 216° Southwest 456 525 34,000  Level Memphis Center
12:15AM 35.2931 -94.3789 223° Southwest 456 525 34,000  Level Memphis Center
12:16AM 35.1419 -94.5422 221° Southwest 448 516 34,000  Level Fort Worth Center
12:17AM 35.0503 -94.6417 222° Southwest 453 521 34,000  Level Fort Worth Center
12:18AM 34.9567 -94.7433 222° Southwest 458 527 34,000  Level Fort Worth Center
12:19AM 34.8811 -94.8267 222° Southwest 452 520 34,000  Level Fort Worth Center
12:20AM 34.7750 -94.9411 222° Southwest 458 527 34,000  Level Fort Worth Center
12:21AM 34.6831 -95.0372 221° Southwest 451 519 34,000  Level Fort Worth Center
12:22AM 34.5867 -95.1383 221° Southwest 456 525 34,000  Level Fort Worth Center
12:23AM 34.4967 -95.2364 222° Southwest 456 525 34,000  Level Fort Worth Center
12:24AM 34.4025 -95.3369 221° Southwest 456 525 34,000  Level Fort Worth Center
12:25AM 34.2978 -95.4475 221° Southwest 456 525 34,000 -1,140 Level Fort Worth Center
12:26AM 34.2033 -95.5453 221° Southwest 451 519 31,800 -2,340 Descending Fort Worth Center
12:27AM 34.1067 -95.6450 221° Southwest 456 525 29,400 -2,460 Descending Fort Worth Center
12:28AM 34.0203 -95.7397 222° Southwest 462 532 26,900 -2,640 Descending Fort Worth Center
12:29AM 33.9153 -95.8442 220° Southwest 480 552 24,200 -2,880 Descending Fort Worth Center
12:30AM 33.8039 -95.9586 221° Southwest 480 552 21,200 -2,760 Descending Fort Worth Center
12:31AM 33.7111 -96.0575 222° Southwest 468 539 18,700 -2,640 Descending Fort Worth Center
12:32AM 33.6308 -96.1661 228° Southwest 444 511 16,000 -2,640 Descending Fort Worth Center
12:33AM 33.5547 -96.2719 229° Southwest 430 495 13,500 -2,280 Descending Fort Worth Center
12:34AM 33.4825 -96.3725 229° Southwest 410 472 11,500 -1,260 Descending Fort Worth Center
12:35AM 33.4122 -96.4703 229° Southwest 405 466 11,000 -540 Descending Fort Worth Center
12:36AM 33.3500 -96.5667 232° Southwest 305 351 10,400 -1,200 Descending Dallas / Fort Worth TRACON
12:37AM 33.2964 -96.6281 224° Southwest 316 364 8,600 -1,980 Descending Fort Worth Center
12:38AM 33.2447 -96.7006 230° Southwest 292 336 6,600 -1,800 Descending Fort Worth Center
12:39AM 33.1908 -96.7731 228° Southwest 286 329 5,000 -840 Descending Fort Worth Center
12:40AM 33.1411 -96.8428 230° Southwest 286 329 5,000 -300 Level Fort Worth Center
12:41AM 33.1000 -96.9000 229° Southwest 282 325 4,500 -900 Descending Dallas / Fort Worth TRACON
12:42AM 33.0667 -96.9833 245° Southwest 245 282 3,400 -840 Descending Dallas / Fort Worth TRACON
12:43AM 33.0333 -97.0333 232° Southwest 185 213 2,800 -840 Descending Dallas / Fort Worth TRACON
12:44AM 33.0000 -97.0500 203° Southwest 180 207 1,800 -720 Descending Dallas / Fort Worth TRACON
12:45AM 32.9500 -97.0500 180° South 132 152 1,500 240 Descending Dallas / Fort Worth TRACON
12:46AM 32.9167 -97.0667 203° Southwest 161 185 2,300 720 Climbing Dallas / Fort Worth TRACON
12:47AM 32.8667 -97.1000 209° Southwest 213 245 3,100 360 Climbing Dallas / Fort Worth TRACON
12:48AM 32.9000 -97.1667 301° West 251 289 3,100  Level Dallas / Fort Worth TRACON
12:49AM 32.9500 -97.1833 344° North 233 268 3,100  Level Dallas / Fort Worth TRACON
12:50AM 33.0167 -97.1833 360° North 201 231 3,100  Level Dallas / Fort Worth TRACON
12:51AM 33.0500 -97.1333 51° Northeast 187 215 3,100 -360 Level Dallas / Fort Worth TRACON
12:52AM 33.0500 -97.0667 90° East 175 201 2,500 -420 Descending Dallas / Fort Worth TRACON
12:53AM 33.0000 -97.0500 164° South 167 192 2,300 -480 Descending Dallas / Fort Worth TRACON
12:54AM 32.9667 -97.0500 180° South 145 167 1,500 -780 Descending Dallas / Fort Worth TRACON